Coxhoe, United Kingdom
Current Conditions -  °F | °C
As of 11:50 AM on Sunday 21 Dec 2014 (Local Time) from EGNV Reporting Station
Broken Clouds Broken Clouds  
Wind Chill: 50°   Ceiling: 3600
Heat Index: 50°   Visibility: 6mi
Dew Point: 45°   Wind: 23mph
Humidity: 82%   Direction: 230°SW
Pressure: 29.97"   Gusts: 35mph
Location:  54.71°N, 1.5°W
Report Text: EGNV 211150Z 23020G30KT 9999 SCT015 BKN036 10/07 Q1015
Loading
Personal Weather Stations






























Interactive Weather Map New forecast layout! Learn more

10-Day Weather Forecast

Advertisements
Track Severe Weather on mobile